Time;durP1;ratioP1;P1;durP2;ratioP2;P2;SDS_P1;SDS_P2;PMS_P1;PMS_P2;Temp;Humidity;BMP_temperature;BMP_pressure;BME280_temperature;BME280_humidity;BME280_pressure;Samples;Min_cycle;Max_cycle;Signal;HPM_P1;HPM_P2
2023/05/09 00:02:01;;;;;;;16.90;8.65;;;;;;;;;;4947908;28;91756;-76
2023/05/09 00:04:29;;;;;;;17.83;9.00;;;;;;;;;;4951031;28;93996;-76
2023/05/09 00:06:55;;;;;;;18.90;9.15;;;;;;;;;;4945444;28;93089;-76
2023/05/09 00:09:22;;;;;;;19.77;9.77;;;;;;;;;;4946969;28;94882;-76
2023/05/09 00:11:48;;;;;;;18.55;9.50;;;;;;;;;;4947845;28;95113;-76
2023/05/09 00:14:17;;;;;;;23.27;10.90;;;;;;;;;;4946958;28;93475;-77
2023/05/09 00:16:44;;;;;;;23.10;10.45;;;;;;;;;;4946579;28;92534;-76
2023/05/09 00:19:11;;;;;;;23.50;10.45;;;;;;;;;;4946897;28;93176;-76
2023/05/09 00:21:38;;;;;;;21.92;10.10;;;;;;;;;;4942257;28;93253;-76
2023/05/09 00:24:05;;;;;;;24.13;10.45;;;;;;;;;;4948641;28;92471;-78
2023/05/09 00:26:31;;;;;;;24.15;11.02;;;;;;;;;;4945561;28;94435;-78
2023/05/09 00:28:58;;;;;;;22.38;10.32;;;;;;;;;;4947455;28;92948;-78
2023/05/09 00:31:24;;;;;;;21.88;10.77;;;;;;;;;;4947159;28;93337;-78
2023/05/09 00:33:52;;;;;;;23.95;10.55;;;;;;;;;;4946107;28;96916;-78
2023/05/09 00:36:19;;;;;;;20.27;9.80;;;;;;;;;;4947197;28;92813;-76
2023/05/09 00:38:46;;;;;;;23.38;10.95;;;;;;;;;;4947030;28;93014;-76
2023/05/09 00:41:12;;;;;;;20.45;10.40;;;;;;;;;;4947275;28;93070;-76
2023/05/09 00:43:39;;;;;;;21.88;10.20;;;;;;;;;;4947413;28;92806;-76
2023/05/09 00:46:05;;;;;;;21.25;10.10;;;;;;;;;;4947872;28;97109;-76
2023/05/09 00:48:32;;;;;;;20.52;10.05;;;;;;;;;;4944926;28;93057;-76
2023/05/09 00:50:59;;;;;;;21.95;10.70;;;;;;;;;;4945116;28;93880;-77
2023/05/09 00:53:25;;;;;;;22.70;10.80;;;;;;;;;;4946685;28;93094;-77
2023/05/09 00:55:54;;;;;;;20.40;10.23;;;;;;;;;;4946623;28;92547;-77
2023/05/09 00:58:21;;;;;;;21.10;10.63;;;;;;;;;;4945626;28;95736;-77
2023/05/09 01:00:47;;;;;;;19.30;9.98;;;;;;;;;;4946648;28;93349;-78
2023/05/09 01:03:13;;;;;;;21.77;10.10;;;;;;;;;;4946077;28;92541;-77
2023/05/09 01:05:51;;;;;;;20.80;11.10;;;;;;;;;;4928338;28;95537;-77
2023/05/09 01:08:27;;;;;;;22.45;11.00;;;;;;;;;;4951859;28;94426;-77
2023/05/09 01:10:57;;;;;;;21.77;10.65;;;;;;;;;;4949521;28;95953;-77
2023/05/09 01:13:30;;;;;;;23.65;11.13;;;;;;;;;;4950412;28;93105;-77
2023/05/09 01:16:00;;;;;;;20.05;10.40;;;;;;;;;;4948623;28;92443;-77
2023/05/09 01:18:39;;;;;;;21.60;10.55;;;;;;;;;;4950090;28;92489;-77
2023/05/09 01:21:10;;;;;;;22.10;10.68;;;;;;;;;;4948322;28;94370;-79
2023/05/09 01:23:47;;;;;;;18.85;9.50;;;;;;;;;;4949384;28;95542;-78
2023/05/09 01:26:37;;;;;;;20.90;10.95;;;;;;;;;;4948945;28;95230;-77
2023/05/09 01:29:22;;;;;;;20.92;10.23;;;;;;;;;;4953650;28;98500;-77
2023/05/09 01:31:49;;;;;;;23.83;10.73;;;;;;;;;;4971871;28;92413;-77
2023/05/09 01:34:17;;;;;;;23.30;10.63;;;;;;;;;;4957174;28;92995;-76
2023/05/09 01:36:45;;;;;;;20.70;9.93;;;;;;;;;;4947027;28;92567;-77
2023/05/09 01:39:12;;;;;;;23.20;11.38;;;;;;;;;;4955679;28;94066;-77
2023/05/09 01:41:39;;;;;;;20.85;10.38;;;;;;;;;;4959313;28;92860;-77
2023/05/09 01:44:08;;;;;;;23.80;11.63;;;;;;;;;;4967515;28;99666;-77
2023/05/09 01:46:36;;;;;;;23.10;11.38;;;;;;;;;;4963130;28;92459;-77
2023/05/09 01:49:04;;;;;;;24.45;11.98;;;;;;;;;;4965881;28;98512;-77
2023/05/09 01:51:31;;;;;;;22.45;11.48;;;;;;;;;;4966916;28;92499;-77
2023/05/09 01:53:59;;;;;;;21.63;11.25;;;;;;;;;;4972338;28;93304;-76
2023/05/09 01:56:26;;;;;;;22.33;11.18;;;;;;;;;;4968400;28;92543;-77
2023/05/09 01:58:54;;;;;;;23.20;11.23;;;;;;;;;;4948566;28;95279;-77
2023/05/09 02:01:22;;;;;;;23.33;11.43;;;;;;;;;;4947745;28;94949;-76
2023/05/09 02:03:51;;;;;;;23.98;11.73;;;;;;;;;;4947919;28;93008;-77
2023/05/09 02:06:19;;;;;;;23.55;11.32;;;;;;;;;;4948386;28;95695;-77
2023/05/09 02:08:47;;;;;;;23.00;11.48;;;;;;;;;;4967648;28;98072;-77
2023/05/09 02:11:13;;;;;;;;;;;;;;;;;;4968494;28;92540;-77
2023/05/09 02:13:39;;;;;;;22.13;11.23;;;;;;;;;;4955617;28;117973;-77
2023/05/09 02:16:06;;;;;;;21.15;11.23;;;;;;;;;;4964986;28;94496;-77
2023/05/09 02:18:35;;;;;;;23.75;11.32;;;;;;;;;;4966628;28;93988;-77
2023/05/09 02:21:02;;;;;;;22.00;10.90;;;;;;;;;;4969025;28;93669;-77
2023/05/09 02:23:29;;;;;;;25.70;11.88;;;;;;;;;;4967678;28;92797;-76
2023/05/09 02:25:55;;;;;;;26.58;11.98;;;;;;;;;;4954785;28;93024;-77
2023/05/09 02:28:24;;;;;;;27.08;12.75;;;;;;;;;;4942330;28;95863;-76
2023/05/09 02:30:51;;;;;;;26.98;12.57;;;;;;;;;;4948846;28;92030;-76
2023/05/09 02:33:17;;;;;;;24.92;12.00;;;;;;;;;;4949431;28;92559;-77
2023/05/09 02:35:45;;;;;;;26.00;12.50;;;;;;;;;;4951732;28;93206;-76
2023/05/09 02:38:11;;;;;;;;;;;;;;;;;;4947915;28;94927;-77
2023/05/09 02:40:38;;;;;;;23.88;11.88;;;;;;;;;;4948365;28;97188;-76
2023/05/09 02:43:04;;;;;;;23.80;11.45;;;;;;;;;;4947460;28;92536;-77
2023/05/09 02:45:31;;;;;;;27.45;11.85;;;;;;;;;;4947074;28;95815;-77
2023/05/09 02:47:58;;;;;;;25.90;12.27;;;;;;;;;;4948765;28;93043;-77
2023/05/09 02:50:25;;;;;;;27.23;11.95;;;;;;;;;;4947807;28;92533;-77
2023/05/09 02:52:52;;;;;;;23.45;11.20;;;;;;;;;;4946855;28;95365;-77
2023/05/09 02:55:18;;;;;;;27.67;12.25;;;;;;;;;;4948130;28;92331;-77
2023/05/09 02:57:45;;;;;;;23.83;11.70;;;;;;;;;;4955855;28;92496;-77
2023/05/09 03:00:12;;;;;;;22.40;11.25;;;;;;;;;;4948861;28;92999;-77
2023/05/09 03:02:38;;;;;;;24.45;12.32;;;;;;;;;;4945793;28;94811;-77
2023/05/09 03:05:09;;;;;;;25.27;11.88;;;;;;;;;;4945989;28;97984;-77
2023/05/09 03:07:36;;;;;;;22.80;11.45;;;;;;;;;;4945421;28;94864;-76
2023/05/09 03:10:03;;;;;;;24.60;12.75;;;;;;;;;;4940502;28;92429;-76
2023/05/09 03:12:30;;;;;;;23.25;12.40;;;;;;;;;;4941688;28;95011;-76
2023/05/09 03:14:56;;;;;;;22.00;11.02;;;;;;;;;;4948783;28;93339;-76
2023/05/09 03:17:23;;;;;;;21.58;11.25;;;;;;;;;;4946803;28;92950;-77
2023/05/09 03:19:49;;;;;;;24.05;11.50;;;;;;;;;;4951565;28;92922;-76
2023/05/09 03:22:16;;;;;;;24.45;11.95;;;;;;;;;;4948717;28;92488;-76
2023/05/09 03:24:51;;;;;;;22.27;11.68;;;;;;;;;;4942073;28;99665;-78
2023/05/09 03:27:18;;;;;;;25.17;11.90;;;;;;;;;;4950861;28;95340;-76
2023/05/09 03:29:45;;;;;;;23.75;12.10;;;;;;;;;;4946585;28;93118;-76
2023/05/09 03:32:14;;;;;;;25.05;12.55;;;;;;;;;;4930460;28;94123;-76
2023/05/09 03:34:40;;;;;;;23.83;11.52;;;;;;;;;;4929243;28;94370;-76
2023/05/09 03:37:07;;;;;;;23.25;12.10;;;;;;;;;;4946742;28;93420;-76
2023/05/09 03:39:37;;;;;;;23.05;11.93;;;;;;;;;;4943014;28;95059;-76
2023/05/09 03:42:04;;;;;;;23.95;11.88;;;;;;;;;;4951097;28;93008;-76
2023/05/09 03:44:30;;;;;;;25.88;13.18;;;;;;;;;;4946094;28;93196;-76
2023/05/09 03:46:58;;;;;;;22.15;11.02;;;;;;;;;;4945582;28;93114;-76
2023/05/09 03:49:29;;;;;;;25.13;13.02;;;;;;;;;;4946548;28;92552;-76
2023/05/09 03:51:56;;;;;;;22.33;10.13;;;;;;;;;;4945013;28;95868;-78
2023/05/09 03:54:25;;;;;;;21.80;10.30;;;;;;;;;;4929709;28;95023;-80
2023/05/09 03:56:51;;;;;;;21.92;10.82;;;;;;;;;;4946206;28;92454;-76
2023/05/09 03:59:18;;;;;;;23.67;11.05;;;;;;;;;;4948194;28;92479;-76
2023/05/09 04:01:44;;;;;;;22.90;11.10;;;;;;;;;;4945756;28;94791;-76
2023/05/09 04:04:11;;;;;;;22.35;10.75;;;;;;;;;;4949345;28;92708;-76
2023/05/09 04:06:38;;;;;;;22.63;10.93;;;;;;;;;;4945041;28;96176;-76
2023/05/09 04:09:07;;;;;;;19.80;10.27;;;;;;;;;;4946466;28;92132;-76
2023/05/09 04:11:33;;;;;;;22.75;11.23;;;;;;;;;;4945188;28;95125;-76
2023/05/09 04:14:00;;;;;;;25.95;11.85;;;;;;;;;;4945476;28;95691;-76
2023/05/09 04:16:30;;;;;;;25.88;10.70;;;;;;;;;;4944452;28;95087;-76
2023/05/09 04:18:57;;;;;;;23.08;11.43;;;;;;;;;;4948904;28;96623;-76
2023/05/09 04:21:24;;;;;;;25.83;11.48;;;;;;;;;;4955961;28;94264;-76
2023/05/09 04:23:54;;;;;;;24.55;10.82;;;;;;;;;;4958479;28;92740;-76
2023/05/09 04:26:30;;;;;;;22.55;11.73;;;;;;;;;;4957251;28;94736;-76
2023/05/09 04:28:57;;;;;;;21.35;11.15;;;;;;;;;;4945932;28;92703;-76
2023/05/09 04:31:25;;;;;;;21.65;10.95;;;;;;;;;;4947224;28;93112;-76
2023/05/09 04:33:52;;;;;;;20.27;10.40;;;;;;;;;;4945539;28;95047;-76
2023/05/09 04:36:20;;;;;;;20.23;10.38;;;;;;;;;;4945736;28;92580;-77
2023/05/09 04:38:46;;;;;;;18.05;9.57;;;;;;;;;;4948479;28;99462;-77
2023/05/09 04:41:17;;;;;;;20.42;9.65;;;;;;;;;;4947636;28;96627;-77
2023/05/09 04:43:43;;;;;;;18.25;9.50;;;;;;;;;;4949767;28;92820;-77
2023/05/09 04:46:10;;;;;;;20.90;9.75;;;;;;;;;;4951582;28;95376;-76
2023/05/09 04:48:37;;;;;;;16.90;9.07;;;;;;;;;;4948475;28;92535;-76
2023/05/09 04:51:03;;;;;;;19.17;9.35;;;;;;;;;;4949222;28;95759;-76
2023/05/09 04:53:30;;;;;;;16.55;8.45;;;;;;;;;;4950318;28;94920;-76
2023/05/09 04:55:57;;;;;;;;;;;;;;;;;;4949382;28;92479;-76
2023/05/09 04:58:25;;;;;;;18.50;9.07;;;;;;;;;;4950427;28;97160;-76
2023/05/09 05:00:53;;;;;;;19.58;9.15;;;;;;;;;;4948945;28;94346;-77
2023/05/09 05:03:20;;;;;;;16.77;8.57;;;;;;;;;;4936573;28;92479;-77
2023/05/09 05:05:47;;;;;;;16.92;8.68;;;;;;;;;;4935290;28;94884;-77
2023/05/09 05:08:14;;;;;;;16.20;8.52;;;;;;;;;;4951194;28;95553;-77
2023/05/09 05:10:41;;;;;;;17.00;7.68;;;;;;;;;;4947902;28;95597;-77
2023/05/09 05:13:10;;;;;;;16.30;8.40;;;;;;;;;;4948656;28;94493;-77
2023/05/09 05:15:41;;;;;;;15.60;8.55;;;;;;;;;;4933552;28;92932;-77
2023/05/09 05:18:08;;;;;;;;;;;;;;;;;;4965519;28;94962;-77
2023/05/09 05:20:35;;;;;;;14.05;7.00;;;;;;;;;;4971208;28;103102;-77
2023/05/09 05:23:01;;;;;;;16.60;8.27;;;;;;;;;;4971876;28;91760;-77
2023/05/09 05:25:28;;;;;;;14.85;7.50;;;;;;;;;;4966988;28;92395;-77
2023/05/09 05:27:55;;;;;;;15.90;7.85;;;;;;;;;;4954077;28;94581;-77
2023/05/09 05:30:22;;;;;;;14.65;7.55;;;;;;;;;;4953001;28;95456;-77
2023/05/09 05:32:49;;;;;;;16.75;8.13;;;;;;;;;;4950592;28;95358;-77
2023/05/09 05:35:21;;;;;;;15.77;8.15;;;;;;;;;;4951332;28;92744;-77
2023/05/09 05:37:49;;;;;;;15.73;7.32;;;;;;;;;;4954709;28;92806;-77
2023/05/09 05:40:16;;;;;;;13.35;6.60;;;;;;;;;;4951176;28;99514;-77
2023/05/09 05:42:45;;;;;;;14.23;6.75;;;;;;;;;;4950748;28;92545;-77
2023/05/09 05:45:12;;;;;;;14.07;7.13;;;;;;;;;;4950389;28;95008;-77
2023/05/09 05:47:42;;;;;;;14.15;7.00;;;;;;;;;;4948247;28;94447;-77
2023/05/09 05:50:10;;;;;;;12.73;6.40;;;;;;;;;;4963122;28;93361;-77
2023/05/09 05:52:38;;;;;;;12.40;6.50;;;;;;;;;;4970179;28;95269;-77
2023/05/09 05:55:06;;;;;;;13.57;6.78;;;;;;;;;;4966517;28;95453;-77
2023/05/09 05:57:34;;;;;;;15.55;7.15;;;;;;;;;;4949163;28;97310;-77
2023/05/09 06:00:00;;;;;;;;;;;;;;;;;;4961577;28;93253;-77
2023/05/09 06:02:27;;;;;;;15.45;7.55;;;;;;;;;;4970572;28;92703;-77
2023/05/09 06:04:54;;;;;;;13.95;6.55;;;;;;;;;;4951554;28;95736;-77
2023/05/09 06:07:22;;;;;;;13.43;6.75;;;;;;;;;;4957831;28;93729;-78
2023/05/09 06:09:49;;;;;;;13.90;6.53;;;;;;;;;;4940844;28;92508;-77
2023/05/09 06:12:16;;;;;;;15.88;8.30;;;;;;;;;;4931541;28;98694;-77
2023/05/09 06:14:42;;;;;;;14.20;7.32;;;;;;;;;;4948797;28;96338;-77
2023/05/09 06:17:09;;;;;;;15.75;8.07;;;;;;;;;;4948275;28;93426;-78
2023/05/09 06:19:36;;;;;;;14.00;7.10;;;;;;;;;;4944614;28;96737;-78
2023/05/09 06:22:03;;;;;;;13.07;6.72;;;;;;;;;;4947848;28;92520;-78
2023/05/09 06:24:33;;;;;;;15.68;8.80;;;;;;;;;;4946542;28;93980;-77
2023/05/09 06:27:03;;;;;;;13.52;6.85;;;;;;;;;;4941925;28;94659;-77
2023/05/09 06:29:29;;;;;;;16.02;7.00;;;;;;;;;;4944488;28;92623;-78
2023/05/09 06:31:56;;;;;;;16.17;7.03;;;;;;;;;;4947894;28;95911;-78
2023/05/09 06:34:23;;;;;;;12.75;6.25;;;;;;;;;;4948652;28;94664;-79
2023/05/09 06:36:49;;;;;;;17.83;6.47;;;;;;;;;;4950480;28;91843;-79
2023/05/09 06:39:16;;;;;;;16.27;6.38;;;;;;;;;;4950215;28;93512;-78
2023/05/09 06:41:42;;;;;;;14.32;7.03;;;;;;;;;;4947616;28;92980;-78
2023/05/09 06:44:09;;;;;;;17.85;6.53;;;;;;;;;;4946470;28;95382;-78
2023/05/09 06:46:35;;;;;;;13.38;6.72;;;;;;;;;;4947355;28;94080;-78
2023/05/09 06:49:02;;;;;;;13.40;6.47;;;;;;;;;;4914409;28;92811;-79
2023/05/09 06:51:28;;;;;;;13.25;6.38;;;;;;;;;;4949079;28;93243;-78
2023/05/09 06:53:55;;;;;;;14.27;6.70;;;;;;;;;;4946815;28;95221;-78
2023/05/09 06:56:22;;;;;;;17.27;8.20;;;;;;;;;;4950899;28;92439;-78
2023/05/09 06:58:48;;;;;;;11.93;5.57;;;;;;;;;;4948128;28;94258;-78
2023/05/09 07:01:16;;;;;;;14.95;8.18;;;;;;;;;;4948671;28;92136;-79
2023/05/09 07:03:46;;;;;;;14.93;7.85;;;;;;;;;;4949060;28;93553;-79
2023/05/09 07:06:13;;;;;;;15.98;8.40;;;;;;;;;;4949027;28;93048;-79
2023/05/09 07:08:39;;;;;;;11.52;6.30;;;;;;;;;;4946790;28;94781;-79
2023/05/09 07:11:06;;;;;;;13.40;6.47;;;;;;;;;;4950599;28;95504;-78
2023/05/09 07:13:32;;;;;;;13.93;6.75;;;;;;;;;;4949562;28;93441;-79
2023/05/09 07:15:59;;;;;;;13.25;6.72;;;;;;;;;;4948375;28;92485;-80
2023/05/09 07:18:26;;;;;;;15.10;7.32;;;;;;;;;;4951342;28;97850;-81
2023/05/09 07:20:53;;;;;;;13.70;6.95;;;;;;;;;;4950396;28;92964;-81
2023/05/09 07:23:22;;;;;;;19.38;7.63;;;;;;;;;;4950502;28;93020;-82
2023/05/09 07:25:48;;;;;;;13.48;6.07;;;;;;;;;;4950375;28;92853;-81
2023/05/09 07:28:15;;;;;;;14.68;7.10;;;;;;;;;;4947871;28;92559;-81
2023/05/09 07:30:42;;;;;;;15.35;7.70;;;;;;;;;;4949133;28;92780;-80
2023/05/09 07:33:11;;;;;;;11.27;6.18;;;;;;;;;;4946839;28;95431;-80
2023/05/09 07:35:38;;;;;;;13.48;6.88;;;;;;;;;;4949158;28;92412;-80
2023/05/09 07:38:05;;;;;;;17.98;9.57;;;;;;;;;;4944471;28;94815;-80
2023/05/09 07:40:36;;;;;;;17.83;9.48;;;;;;;;;;4951128;28;93491;-80
2023/05/09 07:43:02;;;;;;;16.00;8.57;;;;;;;;;;4944073;28;93100;-80
2023/05/09 07:45:29;;;;;;;14.23;7.25;;;;;;;;;;4962913;28;93148;-80
2023/05/09 07:47:55;;;;;;;14.25;7.68;;;;;;;;;;4967735;28;92948;-80
2023/05/09 07:50:22;;;;;;;14.00;7.10;;;;;;;;;;4954867;28;92701;-80
2023/05/09 07:52:50;;;;;;;14.13;6.63;;;;;;;;;;4955321;28;94043;-80
2023/05/09 07:55:16;;;;;;;12.93;6.80;;;;;;;;;;4962191;28;92552;-79
2023/05/09 07:57:43;;;;;;;14.05;6.80;;;;;;;;;;4951634;28;94876;-79
2023/05/09 08:00:10;;;;;;;12.20;6.03;;;;;;;;;;4949916;28;92497;-79
2023/05/09 08:02:40;;;;;;;12.07;6.47;;;;;;;;;;4956672;28;92464;-80
2023/05/09 08:05:07;;;;;;;11.60;6.13;;;;;;;;;;4953285;28;92883;-81
2023/05/09 08:07:35;;;;;;;13.30;7.53;;;;;;;;;;4953170;28;92536;-80
2023/05/09 08:10:02;;;;;;;15.80;8.70;;;;;;;;;;4930787;28;96776;-81
2023/05/09 08:12:28;;;;;;;14.13;7.15;;;;;;;;;;4952731;28;93504;-80
2023/05/09 08:14:54;;;;;;;13.60;6.95;;;;;;;;;;4950938;28;91688;-81
2023/05/09 08:17:21;;;;;;;12.07;6.97;;;;;;;;;;4948356;28;92752;-81
2023/05/09 08:19:48;;;;;;;12.63;6.43;;;;;;;;;;4948498;28;93152;-80
2023/05/09 08:22:18;;;;;;;15.00;8.13;;;;;;;;;;4947505;28;94918;-80
2023/05/09 08:24:45;;;;;;;12.75;6.85;;;;;;;;;;4950310;28;95847;-81
2023/05/09 08:27:12;;;;;;;13.48;7.18;;;;;;;;;;4949015;28;92817;-81
2023/05/09 08:29:39;;;;;;;13.30;7.00;;;;;;;;;;4948737;28;93014;-80
2023/05/09 08:32:06;;;;;;;12.27;6.85;;;;;;;;;;4948495;28;93253;-81
2023/05/09 08:34:33;;;;;;;11.52;6.13;;;;;;;;;;4943801;28;92433;-81
2023/05/09 08:37:00;;;;;;;;;;;;;;;;;;4949203;28;92453;-81
2023/05/09 08:39:29;;;;;;;12.52;6.88;;;;;;;;;;4948317;28;92746;-81
2023/05/09 08:41:59;;;;;;;12.32;6.75;;;;;;;;;;4946808;28;92583;-81
2023/05/09 08:44:27;;;;;;;10.88;6.13;;;;;;;;;;4951563;28;92864;-81
2023/05/09 08:46:58;;;;;;;11.10;6.13;;;;;;;;;;4946454;28;94981;-81
2023/05/09 08:49:25;;;;;;;11.48;5.75;;;;;;;;;;4936717;28;95965;-78
2023/05/09 08:51:55;;;;;;;9.77;4.68;;;;;;;;;;4948830;28;92997;-78
2023/05/09 08:54:22;;;;;;;9.00;4.20;;;;;;;;;;4946441;28;92747;-78
2023/05/09 08:56:49;;;;;;;8.10;3.97;;;;;;;;;;4948024;28;92812;-78
2023/05/09 08:59:17;;;;;;;9.05;3.80;;;;;;;;;;4948328;28;94724;-79
2023/05/09 09:01:44;;;;;;;7.70;3.88;;;;;;;;;;4944103;28;92674;-78
2023/05/09 09:04:11;;;;;;;8.50;3.30;;;;;;;;;;4948941;28;93572;-78
2023/05/09 09:06:38;;;;;;;7.82;3.80;;;;;;;;;;4941492;28;93064;-79
2023/05/09 09:09:05;;;;;;;9.32;3.80;;;;;;;;;;4951131;28;92757;-77
2023/05/09 09:11:33;;;;;;;10.00;3.90;;;;;;;;;;4957730;28;95909;-77
2023/05/09 09:13:59;;;;;;;;;;;;;;;;;;4966149;28;92589;-77
2023/05/09 09:16:27;;;;;;;7.32;3.30;;;;;;;;;;4967651;28;92477;-77
2023/05/09 09:18:54;;;;;;;10.50;3.65;;;;;;;;;;4957910;28;93449;-77
2023/05/09 09:21:24;;;;;;;8.52;3.47;;;;;;;;;;4965893;28;92359;-77
2023/05/09 09:23:51;;;;;;;7.90;3.70;;;;;;;;;;4968013;28;94346;-76
2023/05/09 09:26:17;;;;;;;7.60;3.47;;;;;;;;;;4960862;28;93007;-77
2023/05/09 09:28:44;;;;;;;7.78;3.67;;;;;;;;;;4955256;28;91816;-77
2023/05/09 09:31:20;;;;;;;8.13;3.97;;;;;;;;;;4950036;28;93037;-77
2023/05/09 09:33:47;;;;;;;8.23;3.70;;;;;;;;;;4957904;28;93106;-76
2023/05/09 09:36:13;;;;;;;6.82;3.45;;;;;;;;;;4955703;28;95343;-77
2023/05/09 09:38:42;;;;;;;7.53;3.63;;;;;;;;;;4953686;28;93068;-77
2023/05/09 09:41:10;;;;;;;8.43;3.40;;;;;;;;;;4968058;28;92480;-77
2023/05/09 09:43:37;;;;;;;6.68;3.35;;;;;;;;;;4964676;28;94372;-78
2023/05/09 09:46:04;;;;;;;6.63;3.28;;;;;;;;;;4970239;28;93058;-77
2023/05/09 09:48:34;;;;;;;7.70;3.70;;;;;;;;;;4955962;28;92658;-78
2023/05/09 09:51:08;;;;;;;7.43;3.17;;;;;;;;;;4970113;28;92981;-77
2023/05/09 09:53:41;;;;;;;8.10;3.20;;;;;;;;;;4969306;28;91829;-77
2023/05/09 09:56:08;;;;;;;6.95;3.20;;;;;;;;;;4966221;28;92481;-77
2023/05/09 09:58:35;;;;;;;7.03;3.10;;;;;;;;;;4968456;28;94839;-77
2023/05/09 10:01:15;;;;;;;7.00;3.10;;;;;;;;;;4967466;28;95115;-77
2023/05/09 10:03:43;;;;;;;6.25;3.03;;;;;;;;;;4959413;28;95931;-77
2023/05/09 10:06:11;;;;;;;6.80;3.15;;;;;;;;;;4969658;28;93135;-78
2023/05/09 10:08:38;;;;;;;6.47;3.10;;;;;;;;;;4956581;28;92862;-78
2023/05/09 10:11:05;;;;;;;5.90;2.70;;;;;;;;;;4949824;28;92734;-78
2023/05/09 10:13:38;;;;;;;8.65;3.70;;;;;;;;;;4953361;28;93080;-78
2023/05/09 10:16:05;;;;;;;6.75;2.88;;;;;;;;;;4948680;28;92638;-78
2023/05/09 10:18:32;;;;;;;9.90;3.15;;;;;;;;;;4950116;28;92148;-78
2023/05/09 10:21:05;;;;;;;8.35;3.58;;;;;;;;;;4949777;28;92551;-78
2023/05/09 10:23:33;;;;;;;7.60;2.83;;;;;;;;;;4948288;28;92917;-79
2023/05/09 10:26:05;;;;;;;7.63;2.90;;;;;;;;;;4947449;28;96176;-79
2023/05/09 10:28:33;;;;;;;5.85;2.70;;;;;;;;;;4945466;28;92835;-78
2023/05/09 10:31:10;;;;;;;7.53;2.97;;;;;;;;;;4949230;28;93527;-78
2023/05/09 10:33:41;;;;;;;6.22;2.72;;;;;;;;;;4949175;28;94756;-78
2023/05/09 10:36:09;;;;;;;6.90;2.90;;;;;;;;;;4960676;28;92569;-78
2023/05/09 10:38:36;;;;;;;6.43;2.72;;;;;;;;;;4965069;28;95163;-78
2023/05/09 10:41:04;;;;;;;6.93;2.80;;;;;;;;;;4956326;28;92475;-78
2023/05/09 10:43:30;;;;;;;7.22;2.70;;;;;;;;;;4967368;28;93846;-78
2023/05/09 10:45:57;;;;;;;6.20;2.60;;;;;;;;;;4968643;28;93738;-78
2023/05/09 10:48:25;;;;;;;6.72;2.80;;;;;;;;;;4967341;28;92980;-78
2023/05/09 10:50:52;;;;;;;;;;;;;;;;;;4968060;28;95573;-78
2023/05/09 10:53:20;;;;;;;6.40;2.65;;;;;;;;;;4970258;28;93054;-78
2023/05/09 10:55:59;;;;;;;6.55;2.60;;;;;;;;;;4958356;28;92776;-78
2023/05/09 10:58:32;;;;;;;5.68;2.88;;;;;;;;;;4965288;28;92490;-78
2023/05/09 11:00:59;;;;;;;5.32;2.28;;;;;;;;;;4964100;28;92575;-78
2023/05/09 11:03:27;;;;;;;5.95;2.45;;;;;;;;;;4957633;28;92751;-78
2023/05/09 11:05:54;;;;;;;4.85;2.42;;;;;;;;;;4968816;28;94011;-78
2023/05/09 11:08:32;;;;;;;5.97;2.60;;;;;;;;;;4965957;28;92046;-79
2023/05/09 11:11:04;;;;;;;5.97;2.50;;;;;;;;;;4966851;28;92492;-78
2023/05/09 11:13:31;;;;;;;5.47;2.63;;;;;;;;;;4968831;28;93710;-78
2023/05/09 11:15:58;;;;;;;5.50;2.60;;;;;;;;;;4967149;28;95566;-78
2023/05/09 11:18:25;;;;;;;5.72;2.53;;;;;;;;;;4970111;28;95606;-79
2023/05/09 11:20:51;;;;;;;4.90;2.38;;;;;;;;;;4950016;28;92503;-79
2023/05/09 11:23:18;;;;;;;6.05;2.33;;;;;;;;;;4948459;28;92652;-78
2023/05/09 11:25:46;;;;;;;5.00;2.50;;;;;;;;;;4957246;28;93166;-78
2023/05/09 11:28:24;;;;;;;4.40;2.20;;;;;;;;;;4962629;28;92666;-78
2023/05/09 11:30:51;;;;;;;5.65;2.30;;;;;;;;;;4960276;28;99213;-78
2023/05/09 11:33:21;;;;;;;4.88;2.30;;;;;;;;;;4957189;28;92548;-78
2023/05/09 11:36:08;;;;;;;5.03;2.30;;;;;;;;;;4965356;28;92797;-78
2023/05/09 11:38:41;;;;;;;4.97;2.30;;;;;;;;;;4965242;28;95244;-76
2023/05/09 11:41:08;;;;;;;5.10;2.50;;;;;;;;;;4962667;28;95482;-77
2023/05/09 11:43:38;;;;;;;5.07;2.08;;;;;;;;;;4955521;28;98143;-77
2023/05/09 11:46:04;;;;;;;4.30;2.15;;;;;;;;;;4963467;28;92925;-77
2023/05/09 11:48:38;;;;;;;4.95;2.10;;;;;;;;;;4955073;28;92824;-79
2023/05/09 11:51:06;;;;;;;5.50;2.10;;;;;;;;;;4956779;28;92816;-78
2023/05/09 11:53:32;;;;;;;4.72;2.00;;;;;;;;;;4950160;28;95685;-78
2023/05/09 11:56:06;;;;;;;5.45;2.20;;;;;;;;;;4958898;28;92629;-78
2023/05/09 11:58:36;;;;;;;4.03;1.90;;;;;;;;;;4964184;28;93251;-77
2023/05/09 12:01:03;;;;;;;5.70;2.53;;;;;;;;;;4961021;28;95851;-79
2023/05/09 12:03:30;;;;;;;4.75;2.17;;;;;;;;;;4960359;28;92598;-78
2023/05/09 12:05:57;;;;;;;;;;;;;;;;;;4964169;28;95417;-78
2023/05/09 12:08:24;;;;;;;4.28;2.03;;;;;;;;;;4949614;28;92485;-78
2023/05/09 12:10:50;;;;;;;6.95;2.10;;;;;;;;;;4959795;28;92377;-78
2023/05/09 12:13:18;;;;;;;3.80;1.88;;;;;;;;;;4967836;28;93615;-78
2023/05/09 12:15:44;;;;;;;;;;;;;;;;;;4965416;28;93040;-78
2023/05/09 12:18:11;;;;;;;5.25;2.08;;;;;;;;;;4964024;28;107043;-78
2023/05/09 12:20:41;;;;;;;3.45;1.80;;;;;;;;;;4939217;28;93086;-78
2023/05/09 12:23:13;;;;;;;3.80;1.90;;;;;;;;;;4943256;28;92133;-79
2023/05/09 12:26:06;;;;;;;3.42;1.88;;;;;;;;;;4944814;28;92600;-78
2023/05/09 12:28:33;;;;;;;4.03;1.90;;;;;;;;;;4966689;28;92712;-79
2023/05/09 12:31:00;;;;;;;5.03;2.05;;;;;;;;;;4963877;28;94903;-78
2023/05/09 12:33:26;;;;;;;4.82;1.85;;;;;;;;;;4957452;28;94881;-78
2023/05/09 12:36:02;;;;;;;4.45;1.98;;;;;;;;;;4961362;28;93226;-79
2023/05/09 12:38:28;;;;;;;3.30;1.83;;;;;;;;;;4964116;28;93915;-79
2023/05/09 12:41:02;;;;;;;3.90;1.80;;;;;;;;;;4958995;28;92944;-79
2023/05/09 12:43:33;;;;;;;3.40;1.80;;;;;;;;;;4960752;28;92927;-79
2023/05/09 12:46:01;;;;;;;3.85;1.90;;;;;;;;;;4963595;28;92727;-79
2023/05/09 12:48:28;;;;;;;2.83;1.70;;;;;;;;;;4951352;28;92725;-79
2023/05/09 12:50:54;;;;;;;4.03;2.03;;;;;;;;;;4947736;28;92510;-79
2023/05/09 12:53:25;;;;;;;5.30;2.10;;;;;;;;;;4955314;28;93263;-79
2023/05/09 12:56:02;;;;;;;3.20;1.77;;;;;;;;;;4961592;28;95016;-79
2023/05/09 12:58:32;;;;;;;4.45;1.98;;;;;;;;;;4950516;28;93941;-79
2023/05/09 13:01:04;;;;;;;4.95;2.00;;;;;;;;;;4949941;28;93198;-79
2023/05/09 13:03:36;;;;;;;4.05;1.80;;;;;;;;;;4945029;28;94354;-80
2023/05/09 13:06:04;;;;;;;5.22;2.03;;;;;;;;;;4950031;28;93347;-80
2023/05/09 13:08:30;;;;;;;4.72;1.90;;;;;;;;;;4950386;28;95221;-81
2023/05/09 13:10:59;;;;;;;5.53;2.08;;;;;;;;;;4945723;28;92776;-80
2023/05/09 13:13:41;;;;;;;4.15;1.80;;;;;;;;;;4950914;28;93723;-79
2023/05/09 13:16:08;;;;;;;4.63;1.98;;;;;;;;;;4948468;28;92950;-79
2023/05/09 13:18:37;;;;;;;5.05;1.90;;;;;;;;;;4949271;28;93054;-79
2023/05/09 13:21:04;;;;;;;3.63;1.65;;;;;;;;;;4942638;28;98240;-79
2023/05/09 13:23:30;;;;;;;4.88;1.80;;;;;;;;;;4951018;28;92655;-78
2023/05/09 13:25:57;;;;;;;4.88;1.85;;;;;;;;;;4941465;28;92526;-78
2023/05/09 13:28:24;;;;;;;3.88;1.70;;;;;;;;;;4948610;28;92574;-78
2023/05/09 13:30:50;;;;;;;4.13;1.60;;;;;;;;;;4950796;28;93481;-78
2023/05/09 13:33:17;;;;;;;4.15;1.83;;;;;;;;;;4949249;28;92948;-78
2023/05/09 13:35:51;;;;;;;5.05;1.80;;;;;;;;;;4951020;28;93110;-77
2023/05/09 13:38:18;;;;;;;6.00;2.00;;;;;;;;;;4951313;28;93023;-79
2023/05/09 13:40:45;;;;;;;2.35;1.50;;;;;;;;;;4942363;28;93839;-78
2023/05/09 13:43:11;;;;;;;4.00;1.70;;;;;;;;;;4947533;28;93104;-78
2023/05/09 13:45:38;;;;;;;3.88;2.00;;;;;;;;;;4947787;28;94895;-79
2023/05/09 13:48:04;;;;;;;4.53;2.40;;;;;;;;;;4957335;28;93136;-78
2023/05/09 13:50:31;;;;;;;4.43;1.63;;;;;;;;;;4948209;28;93720;-79
2023/05/09 13:52:58;;;;;;;4.57;1.77;;;;;;;;;;4956606;28;93001;-78
2023/05/09 13:55:25;;;;;;;4.47;1.60;;;;;;;;;;4955650;28;93843;-78
2023/05/09 13:57:52;;;;;;;2.53;1.45;;;;;;;;;;4960567;28;93200;-78
2023/05/09 14:00:20;;;;;;;3.88;1.42;;;;;;;;;;4965336;28;94503;-78
2023/05/09 14:02:47;;;;;;;3.63;1.50;;;;;;;;;;4986291;28;93070;-78
2023/05/09 14:05:13;;;;;;;3.40;1.70;;;;;;;;;;4968326;28;93342;-79
2023/05/09 14:07:40;;;;;;;3.22;1.60;;;;;;;;;;4970580;28;94532;-80
2023/05/09 14:10:07;;;;;;;7.45;1.90;;;;;;;;;;4973769;28;94933;-79
2023/05/09 14:12:43;;;;;;;4.75;1.73;;;;;;;;;;4971148;28;94757;-78
2023/05/09 14:15:10;;;;;;;3.58;1.60;;;;;;;;;;4990101;28;96172;-78
2023/05/09 14:17:36;;;;;;;3.42;1.58;;;;;;;;;;4974885;28;94427;-78
2023/05/09 14:20:03;;;;;;;5.63;1.77;;;;;;;;;;4974214;28;95739;-79
2023/05/09 14:22:30;;;;;;;4.72;1.60;;;;;;;;;;4970168;28;92719;-79
2023/05/09 14:24:57;;;;;;;5.25;1.80;;;;;;;;;;4968340;28;92988;-79
2023/05/09 14:27:23;;;;;;;2.90;1.50;;;;;;;;;;4962823;28;92582;-79
2023/05/09 14:29:50;;;;;;;6.78;1.63;;;;;;;;;;4947865;28;92750;-79
2023/05/09 14:32:17;;;;;;;3.72;1.50;;;;;;;;;;4948214;28;93561;-80
2023/05/09 14:34:44;;;;;;;5.93;1.75;;;;;;;;;;4954716;28;95567;-80
2023/05/09 14:37:13;;;;;;;;;;;;;;;;;;4972099;28;92576;-80
2023/05/09 14:39:44;;;;;;;3.78;1.50;;;;;;;;;;4960264;28;93274;-78
2023/05/09 14:42:12;;;;;;;3.72;1.50;;;;;;;;;;4949065;28;92522;-80